Time;durP1;ratioP1;P1;durP2;ratioP2;P2;SDS_P1;SDS_P2;PMS_P1;PMS_P2;Temp;Humidity;BMP_temperature;BMP_pressure;BME280_temperature;BME280_humidity;BME280_pressure;Samples;Min_cycle;Max_cycle;Signal;HPM_P1;HPM_P2
2021/04/17 08:34:37;;;;;;;29.70;10.60;;;;;;;3.84;90.27;100699.95;115236;1200;26317;-58
2021/04/17 08:37:06;;;;;;;32.10;13.07;;;;;;;3.87;90.31;100696.33;115601;1199;23137;-55
2021/04/17 08:39:43;;;;;;;31.17;11.43;;;;;;;3.90;90.20;100692.73;115588;1200;23182;-56
2021/04/17 08:42:17;;;;;;;32.97;13.00;;;;;;;3.95;90.15;100694.23;115517;1199;23114;-56
2021/04/17 08:44:47;;;;;;;29.20;11.00;;;;;;;3.96;89.96;100684.72;115595;1198;23349;-56
2021/04/17 08:47:46;;;;;;;27.88;10.30;;;;;;;3.98;89.84;100687.84;115625;1200;26877;-56
2021/04/17 08:50:32;;;;;;;31.23;11.87;;;;;;;4.00;89.73;100691.75;115511;1200;23253;-55
2021/04/17 08:53:04;;;;;;;31.20;11.90;;;;;;;4.05;89.93;100682.98;115757;1200;23084;-58
2021/04/17 08:55:45;;;;;;;29.63;11.43;;;;;;;4.08;89.99;100684.88;115468;1200;23166;-58
2021/04/17 08:58:22;;;;;;;27.40;11.80;;;;;;;4.10;89.97;100685.23;115615;1200;23255;-56
2021/04/17 09:01:13;;;;;;;28.75;11.20;;;;;;;4.16;90.04;100679.98;115502;1200;23081;-56
2021/04/17 09:03:44;;;;;;;26.07;9.80;;;;;;;4.22;89.83;100685.81;115489;1199;25975;-56
2021/04/17 09:06:43;;;;;;;27.85;10.25;;;;;;;4.26;89.97;100684.55;115541;1202;27155;-58
2021/04/17 09:09:29;;;;;;;26.50;11.10;;;;;;;4.29;89.80;100686.44;115631;1199;27434;-56
2021/04/17 09:12:16;;;;;;;27.27;8.90;;;;;;;4.34;89.64;100685.17;115390;1200;23150;-57
2021/04/17 09:15:05;;;;;;;23.80;9.35;;;;;;;4.38;89.46;100685.88;115337;1200;23202;-56
2021/04/17 09:17:51;;;;;;;25.90;10.00;;;;;;;4.41;89.35;100685.01;115486;1200;26345;-57
2021/04/17 09:20:38;;;;;;;25.95;10.00;;;;;;;4.43;89.20;100682.63;115312;1200;27290;-61
2021/04/17 09:23:08;;;;;;;22.50;9.37;;;;;;;4.46;89.07;100688.07;115182;1203;23106;-65
2021/04/17 09:25:42;;;;;;;25.80;10.00;;;;;;;4.48;89.19;100680.13;115721;1199;23128;-59
2021/04/17 09:28:12;;;;;;;29.53;9.87;;;;;;;4.50;88.97;100688.78;115581;1200;23305;-58
2021/04/17 09:30:41;;;;;;;29.63;9.47;;;;;;;4.49;88.96;100687.20;115713;1200;23111;-57
2021/04/17 09:33:14;;;;;;;23.15;8.40;;;;;;;4.48;88.61;100688.42;115432;1199;23167;-54
2021/04/17 09:35:44;;;;;;;21.20;9.30;;;;;;;4.48;88.76;100685.66;115347;1199;23247;-55
2021/04/17 09:38:15;;;;;;;27.87;9.83;;;;;;;4.49;88.65;100678.16;115226;1200;23115;-57
2021/04/17 09:40:48;;;;;;;28.40;11.20;;;;;;;4.50;88.82;100683.25;115466;1200;23196;-57
2021/04/17 09:43:29;;;;;;;30.20;9.20;;;;;;;4.53;88.72;100674.08;115658;1199;23196;-55
2021/04/17 09:46:02;;;;;;;30.85;11.35;;;;;;;4.55;88.73;100676.44;115421;1199;23321;-58
2021/04/17 09:48:40;;;;;;;26.85;9.65;;;;;;;4.58;88.72;100673.59;115443;1200;23081;-56
2021/04/17 09:51:20;;;;;;;28.20;10.20;;;;;;;4.59;88.64;100680.66;115437;1199;23115;-56
2021/04/17 09:53:50;;;;;;;26.10;9.30;;;;;;;4.61;88.74;100677.49;115513;1200;23162;-58
2021/04/17 09:56:29;;;;;;;21.57;8.43;;;;;;;4.65;88.65;100669.89;115508;1200;23130;-56
2021/04/17 09:59:05;;;;;;;24.40;10.10;;;;;;;4.69;88.60;100671.38;115413;1200;23256;-57
2021/04/17 10:01:34;;;;;;;27.80;8.83;;;;;;;4.74;88.57;100672.84;115425;1200;23243;-57
2021/04/17 10:04:05;;;;;;;27.65;11.05;;;;;;;4.78;88.75;100673.53;115441;1199;23173;-57
2021/04/17 10:06:36;;;;;;;22.50;8.80;;;;;;;4.82;88.30;100669.48;115374;1200;23122;-55
2021/04/17 10:09:15;;;;;;;;;;;;;;;4.83;88.09;100676.59;115380;1204;23106;-57
2021/04/17 10:11:45;;;;;;;25.53;9.37;;;;;;;4.80;88.08;100660.08;115087;1202;24434;-59
2021/04/17 10:14:16;;;;;;;30.87;11.67;;;;;;;4.84;88.50;100663.55;115358;1200;23262;-57
2021/04/17 10:16:47;;;;;;;32.70;13.47;;;;;;;4.90;88.68;100659.06;115411;1200;23112;-56
2021/04/17 10:19:17;;;;;;;37.90;14.50;;;;;;;4.94;88.64;100659.75;115248;1200;23111;-56
2021/04/17 10:21:54;;;;;;;30.80;12.85;;;;;;;4.96;88.39;100664.84;115200;1199;23109;-57
2021/04/17 10:24:27;;;;;;;35.80;14.53;;;;;;;4.96;88.09;100664.84;115424;1200;26149;-58
2021/04/17 10:27:06;;;;;;;30.60;14.97;;;;;;;4.95;87.99;100666.83;115313;1199;23108;-56
2021/04/17 10:29:45;;;;;;;37.23;18.13;;;;;;;4.96;88.11;100665.64;115197;1199;23269;-57
2021/04/17 10:32:16;;;;;;;33.90;13.60;;;;;;;4.98;87.94;100667.97;115189;1200;27364;-57
2021/04/17 10:34:47;;;;;;;31.00;13.93;;;;;;;4.97;88.15;100658.09;115330;1199;23111;-56
2021/04/17 10:37:18;;;;;;;34.90;13.80;;;;;;;4.98;87.92;100665.98;115374;1200;26287;-57
2021/04/17 10:40:01;;;;;;;37.23;18.33;;;;;;;4.99;87.76;100672.30;115234;1203;27239;-57
2021/04/17 10:42:47;;;;;;;45.10;20.20;;;;;;;5.00;87.98;100666.33;115288;1200;24478;-55
2021/04/17 10:45:18;;;;;;;38.60;15.25;;;;;;;5.05;88.17;100659.51;116121;1200;23264;-57
2021/04/17 10:48:01;;;;;;;31.70;13.40;;;;;;;5.10;87.90;100662.53;115312;1200;24801;-56
2021/04/17 10:50:32;;;;;;;32.35;14.10;;;;;;;5.15;87.78;100656.49;115290;1202;24782;-57
2021/04/17 10:53:05;;;;;;;29.30;11.20;;;;;;;5.20;87.79;100655.95;115339;1200;27306;-58
2021/04/17 10:55:41;;;;;;;26.45;10.30;;;;;;;5.26;87.40;100659.76;115411;1199;23118;-58
2021/04/17 10:58:22;;;;;;;24.75;10.25;;;;;;;5.31;87.18;100653.72;115524;1198;23111;-57
2021/04/17 11:00:55;;;;;;;27.90;11.07;;;;;;;5.34;87.17;100654.84;115243;1200;23120;-56
2021/04/17 11:03:27;;;;;;;24.20;9.97;;;;;;;5.42;87.42;100645.91;115289;1202;23111;-56
2021/04/17 11:05:57;;;;;;;27.10;10.60;;;;;;;5.51;87.42;100651.61;115249;1200;23580;-58
2021/04/17 11:08:28;;;;;;;25.20;8.85;;;;;;;5.62;87.22;100645.80;115235;1200;25981;-56
2021/04/17 11:10:57;;;;;;;24.68;9.60;;;;;;;5.73;87.27;100652.61;115297;1199;23173;-57
2021/04/17 11:13:34;;;;;;;26.13;10.53;;;;;;;5.81;86.49;100655.20;115056;1202;25921;-56
2021/04/17 11:16:04;;;;;;;32.25;10.20;;;;;;;5.83;86.70;100652.77;115180;1200;23109;-56
2021/04/17 11:18:36;;;;;;;25.30;9.50;;;;;;;5.87;86.29;100653.48;115170;1200;23213;-57
2021/04/17 11:21:07;;;;;;;28.50;10.40;;;;;;;5.91;86.52;100651.39;115241;1199;23111;-57
2021/04/17 11:23:39;;;;;;;26.50;11.50;;;;;;;5.99;86.77;100647.99;115159;1199;23125;-58
2021/04/17 11:26:09;;;;;;;24.70;10.00;;;;;;;6.04;85.93;100655.75;116157;1200;23111;-57
2021/04/17 11:28:41;;;;;;;26.33;9.57;;;;;;;6.06;86.18;100653.32;115060;1199;25564;-58
2021/04/17 11:31:11;;;;;;;28.05;11.20;;;;;;;6.09;86.35;100654.45;114870;1202;23116;-54
2021/04/17 11:33:39;;;;;;;26.10;9.48;;;;;;;6.12;85.98;100653.58;115270;1202;23248;-56
2021/04/17 11:36:09;;;;;;;26.93;10.43;;;;;;;6.13;85.98;100644.03;115284;1200;23221;-58
2021/04/17 11:38:38;;;;;;;25.18;9.23;;;;;;;6.16;85.76;100649.50;115502;1200;23133;-56
2021/04/17 11:41:07;;;;;;;25.40;8.10;;;;;;;6.18;85.81;100652.61;115220;1200;27313;-57
2021/04/17 11:43:37;;;;;;;25.40;10.17;;;;;;;6.15;85.05;100647.93;115516;1199;23425;-58
2021/04/17 11:46:05;;;;;;;26.77;9.73;;;;;;;6.14;84.75;100646.39;115345;1202;23272;-56
2021/04/17 11:48:34;;;;;;;25.35;10.60;;;;;;;6.12;85.49;100651.59;115313;1200;23465;-56
2021/04/17 11:51:03;;;;;;;30.15;10.15;;;;;;;6.15;85.68;100649.91;115258;1200;23200;-57
2021/04/17 11:53:32;;;;;;;27.30;11.25;;;;;;;6.17;85.46;100651.03;115372;1200;24818;-56
2021/04/17 11:56:01;;;;;;;25.95;10.35;;;;;;;6.17;85.29;100651.03;115368;1200;23125;-58
2021/04/17 11:58:29;;;;;;;24.90;9.45;;;;;;;6.19;85.19;100654.15;115106;1200;26104;-54
2021/04/17 12:00:59;;;;;;;25.40;9.75;;;;;;;6.18;85.02;100655.38;115233;1200;23173;-56
2021/04/17 12:03:28;;;;;;;27.70;10.50;;;;;;;6.18;85.03;100654.59;115038;1202;23508;-56
2021/04/17 12:05:57;;;;;;;26.05;10.30;;;;;;;6.16;85.26;100660.59;115071;1199;23295;-59
2021/04/17 12:08:26;;;;;;;27.55;10.55;;;;;;;6.14;84.93;100673.33;115223;1200;23492;-58
2021/04/17 12:10:55;;;;;;;30.05;12.10;;;;;;;6.12;85.19;100667.44;115186;1200;23285;-57
2021/04/17 12:13:25;;;;;;;29.60;11.10;;;;;;;6.12;85.15;100667.44;115178;1200;27883;-57
2021/04/17 12:15:53;;;;;;;28.45;11.70;;;;;;;6.13;85.29;100666.99;118626;1202;22939;-58
2021/04/17 12:18:22;;;;;;;28.00;11.60;;;;;;;6.13;85.21;100674.52;118573;1202;23831;-59
2021/04/17 12:20:51;;;;;;;24.57;10.47;;;;;;;6.12;85.07;100670.21;116760;1199;23116;-57
2021/04/17 12:23:19;;;;;;;30.00;12.30;;;;;;;6.11;85.32;100671.41;115281;1199;23094;-58
2021/04/17 12:25:48;;;;;;;31.73;11.83;;;;;;;6.10;85.17;100672.64;115377;1200;23115;-56
2021/04/17 12:28:18;;;;;;;29.97;11.73;;;;;;;6.08;85.08;100673.09;115278;1203;23185;-59
2021/04/17 12:30:47;;;;;;;32.45;12.25;;;;;;;6.08;85.08;100669.53;115376;1200;23111;-59
2021/04/17 12:33:16;;;;;;;31.97;13.37;;;;;;;6.08;85.14;100678.63;115359;1200;23176;-58
2021/04/17 12:35:45;;;;;;;32.27;12.73;;;;;;;6.09;85.00;100671.08;115394;1200;27278;-57
2021/04/17 12:38:13;;;;;;;32.25;12.80;;;;;;;6.09;85.12;100677.41;115202;1202;26329;-57
2021/04/17 12:40:43;;;;;;;35.73;14.73;;;;;;;6.11;85.23;100676.95;115196;1199;26123;-60
2021/04/17 12:43:13;;;;;;;29.25;12.85;;;;;;;6.13;85.37;100678.08;115247;1203;26261;-57
2021/04/17 12:45:42;;;;;;;33.90;12.53;;;;;;;6.16;85.18;100670.89;115222;1199;23330;-57
2021/04/17 12:48:11;;;;;;;35.25;12.25;;;;;;;6.17;84.92;100667.67;115227;1203;23422;-57
2021/04/17 12:50:40;;;;;;;33.10;13.40;;;;;;;6.19;85.02;100675.54;115351;1200;23319;-58
2021/04/17 12:53:09;;;;;;;31.70;13.50;;;;;;;6.22;85.28;100666.36;115221;1200;27202;-58
2021/04/17 12:55:39;;;;;;;33.00;12.50;;;;;;;6.26;85.20;100667.82;115361;1199;24907;-58
2021/04/17 12:58:08;;;;;;;31.63;13.00;;;;;;;6.26;84.93;100664.27;115515;1203;27380;-57
2021/04/17 13:00:37;;;;;;;41.17;14.27;;;;;;;6.26;84.89;100667.82;115448;1199;23375;-60
2021/04/17 13:03:07;;;;;;;32.90;13.10;;;;;;;6.23;84.89;100671.45;115402;1200;23197;-57
2021/04/17 13:05:36;;;;;;;33.45;12.90;;;;;;;6.23;85.17;100659.58;115138;1200;24517;-59
2021/04/17 13:08:07;;;;;;;36.30;14.10;;;;;;;6.20;85.19;100664.03;115270;1199;23260;-57
2021/04/17 13:10:36;;;;;;;27.50;11.95;;;;;;;6.19;85.07;100664.45;115361;1200;23112;-57
2021/04/17 13:13:05;;;;;;;30.00;11.20;;;;;;;6.17;84.97;100666.89;115270;1199;24661;-59
2021/04/17 13:15:35;;;;;;;34.23;12.17;;;;;;;6.15;85.11;100669.32;115175;1200;23286;-55
2021/04/17 13:18:04;;;;;;;32.45;12.85;;;;;;;6.13;85.06;100669.77;114926;1200;23201;-57
2021/04/17 13:20:33;;;;;;;35.63;13.65;;;;;;;6.13;85.43;100668.98;117426;1200;27485;-58
2021/04/17 13:23:03;;;;;;;36.85;14.25;;;;;;;6.13;85.31;100668.98;115155;1203;23121;-57
2021/04/17 13:25:32;;;;;;;35.20;13.75;;;;;;;6.13;85.51;100669.77;114979;1200;23126;-59
2021/04/17 13:28:02;;;;;;;30.73;14.43;;;;;;;6.16;85.47;100676.44;115196;1200;23315;-57
2021/04/17 13:30:31;;;;;;;30.25;13.00;;;;;;;6.16;85.33;100670.89;115180;1200;23166;-57
2021/04/17 13:33:01;;;;;;;36.57;13.70;;;;;;;6.15;85.33;100672.88;115111;1203;24945;-58
2021/04/17 13:35:30;;;;;;;36.00;14.63;;;;;;;6.16;85.30;100668.12;115175;1199;24266;-60
2021/04/17 13:37:59;;;;;;;36.80;15.07;;;;;;;6.16;85.45;100670.89;115469;1200;23173;-59
2021/04/17 13:40:29;;;;;;;30.67;12.87;;;;;;;6.15;85.42;100674.86;115326;1200;24763;-59
2021/04/17 13:42:58;;;;;;;33.70;15.05;;;;;;;6.15;85.11;100672.09;115243;1199;23094;-60
2021/04/17 13:45:27;;;;;;;30.10;14.30;;;;;;;6.15;85.26;100670.11;115322;1199;27434;-59
2021/04/17 13:47:57;;;;;;;28.10;12.13;;;;;;;6.13;84.94;100663.44;115556;1202;23092;-60
2021/04/17 13:50:26;;;;;;;26.90;12.95;;;;;;;6.15;85.25;100669.32;116416;1199;23115;-60
2021/04/17 13:52:57;;;;;;;31.35;11.40;;;;;;;6.17;85.11;100666.89;115266;1200;23111;-59
2021/04/17 13:55:27;;;;;;;42.35;14.90;;;;;;;6.20;85.25;100668.80;115316;1199;23121;-59
2021/04/17 13:57:57;;;;;;;34.30;13.77;;;;;;;6.22;85.41;100666.36;115172;1200;24743;-60
2021/04/17 14:00:28;;;;;;;44.50;18.13;;;;;;;6.25;85.28;100676.55;115704;1200;26239;-58
2021/04/17 14:02:57;;;;;;;43.73;15.40;;;;;;;6.26;85.08;100665.05;116332;1199;23097;-59
2021/04/17 14:05:27;;;;;;;44.50;18.70;;;;;;;6.26;85.23;100670.59;116185;1199;23135;-58
2021/04/17 14:07:56;;;;;;;;;;;;;;;6.30;85.29;100665.72;115820;1207;23104;-57
2021/04/17 14:10:28;;;;;;;46.50;18.83;;;;;;;6.34;85.44;100665.61;115595;1200;21604;-58
2021/04/17 14:12:57;;;;;;;37.90;15.40;;;;;;;6.35;85.20;100659.62;115373;1200;26379;-58
2021/04/17 14:15:29;;;;;;;29.77;12.47;;;;;;;6.35;84.70;100661.64;115224;1199;23173;-57
2021/04/17 14:18:00;;;;;;;31.60;16.00;;;;;;;6.33;84.91;100664.07;115167;1199;23128;-55
2021/04/17 14:20:30;;;;;;;34.23;15.90;;;;;;;6.31;84.94;100670.03;115436;1200;23253;-56
2021/04/17 14:23:00;;;;;;;41.05;15.98;;;;;;;6.30;84.72;100671.27;115146;1199;24918;-56
2021/04/17 14:25:29;;;;;;;33.40;16.25;;;;;;;6.27;84.85;100663.06;115206;1200;27504;-56
2021/04/17 14:28:01;;;;;;;39.30;16.67;;;;;;;6.25;85.07;100671.01;115275;1202;23125;-55
2021/04/17 14:30:31;;;;;;;38.93;16.80;;;;;;;6.23;85.18;100667.91;115303;1200;23115;-57
2021/04/17 14:33:01;;;;;;;36.50;18.33;;;;;;;6.23;85.34;100662.36;115208;1202;25759;-56
2021/04/17 14:35:30;;;;;;;41.50;19.45;;;;;;;6.20;85.03;100671.56;115370;1202;27275;-57
2021/04/17 14:38:00;;;;;;;34.63;14.80;;;;;;;6.20;85.19;100671.56;115906;1164;22877;-58
2021/04/17 14:40:29;;;;;;;44.45;18.03;;;;;;;6.19;85.24;100668.01;114967;1202;24781;-58
2021/04/17 14:43:02;;;;;;;39.53;17.03;;;;;;;6.20;85.19;100668.80;114732;1199;26268;-59
2021/04/17 14:45:32;;;;;;;61.05;23.70;;;;;;;6.19;85.23;100664.45;114784;1202;23144;-59
2021/04/17 14:48:01;;;;;;;33.70;17.30;;;;;;;6.20;85.31;100671.56;114840;1203;25186;-58
2021/04/17 14:50:30;;;;;;;50.55;29.05;;;;;;;6.19;85.22;100670.78;114719;1201;23229;-58
2021/04/17 14:53:00;;;;;;;39.05;19.55;;;;;;;6.17;85.14;100669.66;114953;1202;23151;-60
2021/04/17 14:55:29;;;;;;;35.20;16.50;;;;;;;6.12;85.12;100665.45;114743;1203;23128;-60
2021/04/17 14:58:04;;;;;;;39.40;17.80;;;;;;;6.08;85.12;100664.78;114745;1202;23124;-60
2021/04/17 15:00:33;;;;;;;48.90;25.45;;;;;;;6.06;85.32;100669.95;114739;1203;26213;-58
2021/04/17 15:03:04;;;;;;;52.65;29.40;;;;;;;6.04;85.33;100666.08;114781;1202;23118;-61
2021/04/17 15:05:33;;;;;;;67.65;37.05;;;;;;;6.02;85.65;100669.27;114911;1203;27333;-61
2021/04/17 15:08:03;;;;;;;43.98;23.33;;;;;;;6.02;85.66;100668.52;114898;1203;23185;-60
2021/04/17 15:10:32;;;;;;;37.80;18.65;;;;;;;6.03;85.66;100664.52;114827;1203;23258;-60
2021/04/17 15:13:01;;;;;;;36.40;17.30;;;;;;;6.03;85.61;100672.83;114812;1203;27368;-60
2021/04/17 15:15:31;;;;;;;43.23;20.10;;;;;;;6.05;85.81;100664.85;114685;1202;23638;-61
2021/04/17 15:18:01;;;;;;;33.55;16.45;;;;;;;6.08;85.83;100661.22;114755;1200;26121;-60
2021/04/17 15:20:32;;;;;;;44.45;20.50;;;;;;;6.10;85.68;100662.34;114611;1202;23134;-59
2021/04/17 15:23:01;;;;;;;34.50;17.68;;;;;;;6.12;85.67;100659.13;114725;1201;23122;-59
2021/04/17 15:25:30;;;;;;;37.90;16.95;;;;;;;6.13;85.71;100660.66;114663;1200;24742;-59
2021/04/17 15:27:59;;;;;;;39.75;19.55;;;;;;;6.16;85.87;100666.13;114786;1203;25994;-60
2021/04/17 15:30:29;;;;;;;33.40;17.20;;;;;;;6.20;85.79;100666.02;114639;1202;23147;-60
2021/04/17 15:33:00;;;;;;;33.70;17.57;;;;;;;6.20;85.47;100663.25;114700;1202;24918;-60
2021/04/17 15:35:33;;;;;;;42.97;17.27;;;;;;;6.20;85.39;100663.25;114604;1202;26023;-60
2021/04/17 15:38:04;;;;;;;35.60;16.30;;;;;;;6.20;85.42;100663.25;114861;1200;23179;-59
2021/04/17 15:40:34;;;;;;;47.15;22.10;;;;;;;6.20;85.48;100655.72;114832;1202;27342;-58
2021/04/17 15:43:06;;;;;;;50.37;20.90;;;;;;;6.22;85.44;100655.27;114988;1203;23122;-60
2021/04/17 15:45:37;;;;;;;42.10;21.13;;;;;;;6.23;85.41;100659.58;114863;1200;23105;-60
2021/04/17 15:48:07;;;;;;;47.60;18.65;;;;;;;6.25;85.66;100654.38;114987;1202;25994;-61
2021/04/17 15:50:37;;;;;;;34.70;17.60;;;;;;;6.28;85.54;100656.28;115023;1202;25958;-62
2021/04/17 15:53:08;;;;;;;32.95;16.50;;;;;;;6.31;85.50;100652.64;115057;1202;27421;-61
2021/04/17 15:55:38;;;;;;;40.13;17.53;;;;;;;6.31;85.35;100649.88;114871;1199;23150;-62
2021/04/17 16:15:22;;;;;;;34.35;15.45;;;;;;;6.37;85.35;100645.34;114465;1208;23267;-61
2021/04/17 16:18:04;;;;;;;29.13;14.48;;;;;;;6.38;85.12;100646.88;114568;1209;24012;-60
2021/04/17 16:20:34;;;;;;;34.90;14.60;;;;;;;6.36;85.24;100638.22;114527;1209;23139;-61
2021/04/17 16:23:03;;;;;;;29.40;13.50;;;;;;;6.34;85.08;100638.67;114543;1209;23389;-61
2021/04/17 16:25:34;;;;;;;30.85;13.65;;;;;;;6.33;84.98;100630.80;114582;1209;23163;-61
2021/04/17 16:28:06;;;;;;;32.70;14.30;;;;;;;6.33;85.27;100636.34;114437;1209;25538;-61
2021/04/17 16:30:35;;;;;;;33.27;15.27;;;;;;;6.33;85.31;100631.55;114846;1209;26284;-60
2021/04/17 16:33:07;;;;;;;34.70;14.90;;;;;;;6.34;85.43;100633.13;114384;1209;23141;-61
2021/04/17 16:35:39;;;;;;;;;;;;;;;6.35;85.16;100634.66;114680;1202;26194;-62
2021/04/17 16:38:11;;;;;;;34.70;15.95;;;;;;;6.35;85.44;100631.89;114540;1205;21689;-61
2021/04/17 16:40:42;;;;;;;33.05;18.00;;;;;;;6.36;85.44;100624.36;114692;1202;23193;-58
2021/04/17 16:43:11;;;;;;;38.73;16.57;;;;;;;6.37;85.37;100634.24;114668;1202;23117;-60
2021/04/17 16:45:40;;;;;;;33.10;16.37;;;;;;;6.40;85.39;100627.80;114751;1202;23112;-59
2021/04/17 16:48:12;;;;;;;33.60;16.00;;;;;;;6.39;85.37;100634.58;114719;1202;26184;-61
2021/04/17 16:50:41;;;;;;;35.60;16.45;;;;;;;6.39;85.22;100640.88;114847;1203;23118;-60
2021/04/17 16:53:11;;;;;;;36.37;16.73;;;;;;;6.39;85.37;100640.13;115008;1202;23266;-62
2021/04/17 16:55:40;;;;;;;38.03;17.00;;;;;;;6.38;85.33;100641.33;114899;1202;23132;-63
2021/04/17 16:58:09;;;;;;;36.90;16.27;;;;;;;6.38;85.28;100641.33;115093;1202;24746;-63
2021/04/17 17:00:41;;;;;;;36.20;14.50;;;;;;;6.37;85.26;100640.55;114892;1202;23139;-63
2021/04/17 17:03:13;;;;;;;31.90;14.75;;;;;;;6.36;85.22;100644.55;114685;1202;23151;-60
2021/04/17 17:05:42;;;;;;;32.90;14.65;;;;;;;6.35;85.16;100637.44;114998;1200;23118;-62
2021/04/17 17:08:11;;;;;;;34.40;15.30;;;;;;;6.35;85.26;100640.20;114939;1202;26145;-61
2021/04/17 17:10:41;;;;;;;37.10;16.95;;;;;;;6.35;85.30;100650.55;114931;1202;28473;-61
2021/04/17 17:13:10;;;;;;;36.87;15.73;;;;;;;6.33;85.15;100642.64;114765;1202;23150;-62
2021/04/17 17:15:39;;;;;;;35.05;15.90;;;;;;;6.35;85.29;100642.23;114968;1202;24803;-61
2021/04/17 17:18:13;;;;;;;29.63;14.67;;;;;;;6.33;85.21;100642.64;114836;1202;23131;-60
2021/04/17 17:20:44;;;;;;;32.07;14.70;;;;;;;6.31;85.26;100641.55;114814;1200;26245;-62
2021/04/17 17:23:12;;;;;;;;;;;;;;;6.34;85.37;100646.98;114762;1206;23114;-62
2021/04/17 17:25:41;;;;;;;41.63;18.23;;;;;;;6.31;85.41;100645.08;114731;1203;21618;-61
2021/04/17 17:28:10;;;;;;;47.75;19.75;;;;;;;6.32;85.36;100645.86;114773;1202;26137;-62
2021/04/17 17:30:41;;;;;;;37.87;17.73;;;;;;;6.30;85.28;100643.55;114833;1203;23179;-62
2021/04/17 17:33:10;;;;;;;;;;;;;;;6.30;85.30;100651.08;114859;1206;23127;-61
2021/04/17 17:35:39;;;;;;;31.70;16.25;;;;;;;6.29;85.28;100647.52;114635;1202;21622;-61
2021/04/17 17:38:13;;;;;;;37.20;17.10;;;;;;;6.31;85.27;100652.64;115062;1202;23208;-62
2021/04/17 17:40:42;;;;;;;39.10;17.20;;;;;;;6.30;85.42;100659.39;114959;1200;24060;-61
2021/04/17 17:43:14;;;;;;;35.75;17.95;;;;;;;6.30;85.28;100654.63;114651;1202;23217;-61
2021/04/17 17:45:45;;;;;;;35.70;16.75;;;;;;;6.31;85.19;100660.96;114731;1201;27344;-61
2021/04/17 17:48:17;;;;;;;37.13;17.10;;;;;;;6.30;85.18;100657.41;114681;1199;23111;-62
2021/04/17 17:50:46;;;;;;;39.25;16.65;;;;;;;6.28;85.20;100662.61;114705;1202;23118;-61
2021/04/17 17:53:23;;;;;;;34.05;16.05;;;;;;;6.28;85.14;100664.59;114797;1200;23118;-61
2021/04/17 17:55:52;;;;;;;37.10;16.53;;;;;;;6.28;85.40;100664.59;114778;1202;23118;-61
2021/04/17 17:58:21;;;;;;;35.73;18.40;;;;;;;6.30;85.46;100665.72;114711;1202;27199;-60
2021/04/17 18:00:50;;;;;;;31.20;16.30;;;;;;;6.29;85.24;100669.70;115312;1201;23131;-60
2021/04/17 18:03:22;;;;;;;33.10;16.40;;;;;;;6.30;85.34;100660.17;114843;1200;23111;-60
2021/04/17 18:05:53;;;;;;;36.30;18.00;;;;;;;6.31;85.23;100669.28;114722;1203;23299;-68
2021/04/17 18:08:23;;;;;;;39.10;18.83;;;;;;;6.31;85.18;100666.51;115160;1203;23125;-59
2021/04/17 18:10:54;;;;;;;37.93;18.35;;;;;;;6.32;85.22;100670.82;114976;1203;23122;-61
2021/04/17 18:13:25;;;;;;;153.50;77.90;;;;;;;6.32;85.23;100671.61;114694;1202;23108;-60
2021/04/17 18:15:56;;;;;;;114.03;59.53;;;;;;;6.34;85.35;100671.95;114739;1201;23135;-60
2021/04/17 18:18:26;;;;;;;54.10;24.00;;;;;;;6.34;85.36;100671.16;114603;1203;23122;-60
2021/04/17 18:20:56;;;;;;;41.10;22.80;;;;;;;6.35;85.22;100672.73;114819;1203;23582;-60
2021/04/17 18:23:27;;;;;;;40.10;20.40;;;;;;;6.35;85.33;100679.03;114856;1203;23131;-60
2021/04/17 18:25:56;;;;;;;40.35;21.30;;;;;;;6.36;85.28;100674.27;114722;1203;23132;-62
2021/04/17 18:28:28;;;;;;;42.33;20.80;;;;;;;6.38;85.41;100675.39;114734;1203;23118;-61
2021/04/17 18:30:58;;;;;;;45.10;19.55;;;;;;;6.41;85.37;100682.06;114567;1202;23375;-60
2021/04/17 18:33:27;;;;;;;38.30;18.30;;;;;;;6.44;85.26;100692.25;114802;1202;23135;-61
2021/04/17 18:35:57;;;;;;;36.73;17.30;;;;;;;6.43;85.38;100682.39;114694;1202;23118;-61
2021/04/17 18:38:27;;;;;;;40.08;17.30;;;;;;;6.44;85.46;100689.48;114739;1202;24899;-61
2021/04/17 18:40:56;;;;;;;;;;;;;;;6.46;85.42;100690.61;114676;1206;24749;-60
2021/04/17 18:43:27;;;;;;;36.45;16.15;;;;;;;6.47;85.33;100689.41;114782;1203;22356;-61
2021/04/17 18:45:57;;;;;;;33.17;16.07;;;;;;;6.45;85.31;100685.51;114740;1200;23349;-61
2021/04/17 18:48:26;;;;;;;32.77;15.73;;;;;;;6.43;85.28;100685.17;114847;1202;23139;-61
2021/04/17 18:50:56;;;;;;;34.10;17.10;;;;;;;6.43;85.24;100685.17;114838;1202;23108;-61
2021/04/17 18:53:26;;;;;;;34.23;18.17;;;;;;;6.43;85.35;100690.72;114880;1200;27223;-60
2021/04/17 18:55:57;;;;;;;32.70;16.95;;;;;;;6.43;85.32;100685.17;115018;1200;23150;-58
2021/04/17 18:58:28;;;;;;;;;;;;;;;6.42;85.24;100689.15;115212;1206;24564;-61
2021/04/17 19:00:58;;;;;;;35.00;17.45;;;;;;;6.43;85.39;100691.47;114855;1202;21614;-61
2021/04/17 19:03:35;;;;;;;32.90;16.40;;;;;;;6.46;85.36;100689.82;114933;1202;23117;-60
2021/04/17 19:06:06;;;;;;;36.95;18.50;;;;;;;6.45;85.27;100685.51;114821;1200;27788;-60
2021/04/17 19:08:38;;;;;;;35.53;17.77;;;;;;;6.44;85.22;100686.70;114995;1202;26449;-60
2021/04/17 19:11:07;;;;;;;37.40;17.80;;;;;;;6.41;85.31;100680.04;114954;1199;27419;-60
2021/04/17 19:13:40;;;;;;;35.60;17.87;;;;;;;6.43;85.26;100685.92;114932;1202;23128;-59
2021/04/17 19:16:10;;;;;;;38.05;17.45;;;;;;;6.42;85.29;100684.39;114720;1202;23115;-60
2021/04/17 19:18:40;;;;;;;37.95;17.70;;;;;;;6.46;85.51;100698.14;115087;1202;25046;-60
2021/04/17 19:21:10;;;;;;;34.60;19.17;;;;;;;6.49;85.29;100700.84;114648;1202;27294;-60
2021/04/17 19:23:42;;;;;;;40.57;19.33;;;;;;;6.50;85.34;100702.38;114683;1202;24749;-60
2021/04/17 19:26:12;;;;;;;37.40;18.30;;;;;;;6.52;85.36;100694.39;114692;1203;27274;-61
2021/04/17 19:28:41;;;;;;;40.00;18.90;;;;;;;6.55;85.28;100695.51;114725;1202;23196;-60
2021/04/17 19:31:14;;;;;;;38.75;18.45;;;;;;;6.56;85.20;100699.83;114697;1203;24765;-60
2021/04/17 19:33:45;;;;;;;38.70;18.90;;;;;;;6.58;85.23;100700.16;114703;1202;23128;-60
2021/04/17 19:36:15;;;;;;;37.70;19.05;;;;;;;6.60;85.19;100711.59;114665;1200;26906;-59
2021/04/17 19:38:44;;;;;;;36.55;18.25;;;;;;;6.62;85.23;100709.16;114773;1203;23115;-61
2021/04/17 19:41:14;;;;;;;43.00;20.13;;;;;;;6.64;85.23;100706.75;114729;1202;23138;-60
2021/04/17 19:43:44;;;;;;;39.83;18.63;;;;;;;6.65;85.26;100707.50;114842;1202;26029;-60
2021/04/17 19:46:14;;;;;;;46.07;21.87;;;;;;;6.66;85.07;100706.30;114688;1200;23132;-60
2021/04/17 19:48:48;;;;;;;44.70;23.50;;;;;;;6.66;85.16;100709.08;114659;1203;23264;-61
2021/04/17 19:51:19;;;;;;;50.75;24.75;;;;;;;6.68;85.13;100709.41;114735;1202;23142;-61
2021/04/17 19:53:56;;;;;;;53.00;27.30;;;;;;;6.67;84.95;100703.08;114851;1202;23117;-61
2021/04/17 19:56:29;;;;;;;57.30;30.45;;;;;;;6.69;85.08;100708.17;114836;1203;23568;-60
2021/04/17 19:58:58;;;;;;;64.60;34.25;;;;;;;6.68;85.11;100710.20;114908;1202;23167;-60
2021/04/17 20:01:33;;;;;;;51.90;29.10;;;;;;;6.67;84.93;100703.08;114839;1202;23151;-60
2021/04/17 20:04:04;;;;;;;55.90;29.90;;;;;;;6.67;85.14;100700.30;114969;1200;23265;-61
2021/04/17 20:06:33;;;;;;;;;;;;;;;6.68;85.03;100701.88;114736;1207;25436;-60
2021/04/17 20:09:03;;;;;;;50.37;24.77;;;;;;;6.65;84.77;100701.95;115151;1203;21601;-61
2021/04/17 20:11:33;;;;;;;;;;;;;;;6.63;84.94;100699.63;115104;1206;23178;-61
2021/04/17 20:14:06;;;;;;;42.00;23.60;;;;;;;6.60;85.04;100699.74;115365;1202;25908;-61
2021/04/17 20:16:37;;;;;;;45.30;23.15;;;;;;;6.58;84.87;100702.18;115137;1200;23111;-61
2021/04/17 20:19:06;;;;;;;;;;;;;;;6.53;84.97;100700.72;115275;1206;23114;-61
2021/04/17 20:21:38;;;;;;;45.90;23.60;;;;;;;6.49;84.96;100694.50;114988;1203;26792;-61